createdAt,value
2019-03-22T00:00:10.524Z,6.00
2019-03-22T00:02:57.039Z,5.90
2019-03-22T00:05:51.129Z,5.90
2019-03-22T00:08:35.865Z,5.80
2019-03-22T00:11:20.327Z,5.70
2019-03-22T00:14:05.344Z,5.60
2019-03-22T00:16:50.279Z,5.80
2019-03-22T00:19:34.859Z,6.00
2019-03-22T00:22:19.277Z,6.20
2019-03-22T00:25:13.086Z,6.20
2019-03-22T00:28:06.259Z,5.90
2019-03-22T00:30:50.932Z,5.70
2019-03-22T00:33:36.048Z,5.60
2019-03-22T00:36:21.003Z,5.50
2019-03-22T00:39:06.087Z,5.40
2019-03-22T00:41:50.829Z,5.30
2019-03-22T00:44:35.891Z,5.20
2019-03-22T00:47:29.736Z,5.20
2019-03-22T00:50:14.364Z,5.10
2019-03-22T00:52:59.031Z,5.10
2019-03-22T00:55:43.995Z,5.10
2019-03-22T00:58:28.996Z,5.10
2019-03-22T01:01:13.371Z,5.10
2019-03-22T01:03:57.989Z,5.10
2019-03-22T01:06:42.716Z,5.10
2019-03-22T01:09:27.797Z,5.30
2019-03-22T01:12:12.424Z,5.50
2019-03-22T01:14:57.246Z,5.60
2019-03-22T01:17:41.988Z,5.60
2019-03-22T01:20:26.563Z,5.40
2019-03-22T01:23:11.284Z,5.20
2019-03-22T01:26:04.436Z,5.00
2019-03-22T01:28:49.290Z,4.90
2019-03-22T01:31:33.888Z,4.70
2019-03-22T01:34:18.819Z,4.70
2019-03-22T01:37:03.787Z,4.70
2019-03-22T01:39:48.152Z,4.70
2019-03-22T01:42:32.752Z,4.70
2019-03-22T01:45:17.506Z,4.70
2019-03-22T01:48:10.724Z,4.80
2019-03-22T01:50:55.570Z,4.90
2019-03-22T01:53:40.276Z,4.80
2019-03-22T01:56:25.107Z,4.70
2019-03-22T01:59:10.200Z,4.70
2019-03-22T02:01:54.833Z,4.70
2019-03-22T02:04:39.661Z,4.60
2019-03-22T02:07:24.045Z,4.70
2019-03-22T02:10:09.209Z,4.70
2019-03-22T02:12:53.788Z,4.60
2019-03-22T02:15:38.017Z,4.70
2019-03-22T02:18:31.588Z,4.70
2019-03-22T02:21:26.062Z,4.70
2019-03-22T02:24:19.597Z,4.60
2019-03-22T02:27:04.641Z,4.40
2019-03-22T02:29:49.857Z,4.30
2019-03-22T02:32:43.602Z,4.20
2019-03-22T02:35:29.748Z,4.00
2019-03-22T02:38:14.675Z,4.00
2019-03-22T02:40:59.499Z,4.20
2019-03-22T02:43:44.539Z,4.50
2019-03-22T02:46:29.325Z,4.50
2019-03-22T02:49:14.549Z,4.20
2019-03-22T02:52:08.142Z,4.00
2019-03-22T02:54:53.175Z,4.00
2019-03-22T02:57:47.224Z,4.00
2019-03-22T03:00:31.954Z,4.10
2019-03-22T03:03:16.716Z,4.20
2019-03-22T03:06:01.919Z,4.30
2019-03-22T03:08:55.529Z,4.40
2019-03-22T03:11:40.404Z,4.30
2019-03-22T03:14:25.198Z,4.10
2019-03-22T03:17:10.401Z,3.90
2019-03-22T03:20:04.524Z,3.80
2019-03-22T03:22:58.690Z,3.80
2019-03-22T03:25:52.050Z,4.00
2019-03-22T03:28:37.657Z,4.20
2019-03-22T03:31:32.225Z,4.20
2019-03-22T03:34:16.992Z,4.20
2019-03-22T03:37:01.976Z,4.10
2019-03-22T03:39:47.354Z,4.00
2019-03-22T03:42:30.763Z,4.00
2019-03-22T04:10:46.203Z,3.60
2019-03-22T04:13:30.637Z,3.60
2019-03-22T04:16:15.604Z,3.60
2019-03-22T04:19:00.557Z,3.50
2019-03-22T04:21:45.773Z,3.60
2019-03-22T04:24:30.691Z,3.70
2019-03-22T04:27:15.551Z,3.60
2019-03-22T04:30:00.629Z,3.50
2019-03-22T04:32:54.389Z,3.40
2019-03-22T04:35:39.141Z,3.30
2019-03-22T04:38:23.896Z,3.10
2019-03-22T04:41:10.210Z,3.10
2019-03-22T04:43:55.117Z,3.10
2019-03-22T04:46:40.013Z,3.00
2019-03-22T04:49:24.575Z,3.10
2019-03-22T04:52:09.429Z,3.10
2019-03-22T04:54:54.028Z,3.10
2019-03-22T04:57:38.853Z,3.20
2019-03-22T05:00:24.050Z,3.10
2019-03-22T05:03:08.800Z,3.10
2019-03-22T05:05:53.850Z,2.90
2019-03-22T05:08:47.511Z,2.80
2019-03-22T05:11:32.249Z,2.80
2019-03-22T05:14:16.904Z,2.80
2019-03-22T05:17:02.064Z,2.80
2019-03-22T05:19:46.832Z,2.70
2019-03-22T05:22:31.382Z,2.60
2019-03-22T05:25:16.176Z,2.70
2019-03-22T05:28:00.952Z,2.70
2019-03-22T05:30:45.981Z,2.70
2019-03-22T05:33:30.630Z,2.70
2019-03-22T05:36:15.774Z,2.70
2019-03-22T05:39:00.257Z,2.80
2019-03-22T05:41:45.028Z,3.00
2019-03-22T05:44:30.008Z,3.20
2019-03-22T05:47:15.104Z,3.20
2019-03-22T05:49:59.768Z,3.00
2019-03-22T05:52:44.480Z,2.90
2019-03-22T05:55:29.504Z,2.90
2019-03-22T05:58:14.238Z,2.90
2019-03-22T06:00:59.208Z,2.90
2019-03-22T06:03:44.660Z,3.00
2019-03-22T06:06:29.836Z,3.00
2019-03-22T06:09:14.570Z,3.00
2019-03-22T06:11:59.208Z,3.00
2019-03-22T06:14:43.583Z,3.10
2019-03-22T06:17:36.959Z,3.30
2019-03-22T06:20:21.786Z,3.40
2019-03-22T06:23:06.794Z,3.50
2019-03-22T06:25:52.100Z,3.70
2019-03-22T06:28:45.719Z,3.80
2019-03-22T06:31:30.632Z,4.00
2019-03-22T06:34:15.045Z,4.30
2019-03-22T06:36:59.885Z,4.30
2019-03-22T06:39:44.966Z,4.40
2019-03-22T06:42:29.699Z,4.40
2019-03-22T06:45:14.567Z,4.60
2019-03-22T06:48:00.601Z,4.70
2019-03-22T06:50:45.849Z,4.80
2019-03-22T06:53:31.596Z,4.90
2019-03-22T06:56:16.481Z,5.00
2019-03-22T06:59:01.332Z,5.30
2019-03-22T07:01:45.957Z,5.60
2019-03-22T07:04:30.712Z,5.80
2019-03-22T07:07:15.581Z,6.00
2019-03-22T07:10:00.339Z,6.20
2019-03-22T07:12:45.354Z,6.40
2019-03-22T07:15:30.344Z,6.50
2019-03-22T07:18:15.941Z,6.50
2019-03-22T07:21:09.722Z,6.60
2019-03-22T07:23:54.533Z,6.80
2019-03-22T07:26:49.376Z,7.00
2019-03-22T07:29:42.565Z,7.20
2019-03-22T07:32:27.412Z,7.40
2019-03-22T07:35:12.360Z,7.50
2019-03-22T07:37:57.473Z,7.70
2019-03-22T07:40:42.565Z,7.80
2019-03-22T07:43:36.542Z,8.00
2019-03-22T07:46:21.941Z,8.10
2019-03-22T07:49:15.624Z,8.20
2019-03-22T07:52:11.093Z,8.30
2019-03-22T07:54:55.672Z,8.40
2019-03-22T07:57:40.641Z,8.50
2019-03-22T08:00:30.595Z,8.60
2019-03-22T08:03:21.757Z,8.60
2019-03-22T08:06:15.504Z,8.60
2019-03-22T08:09:10.178Z,8.80
2019-03-22T08:11:54.665Z,9.00
2019-03-22T08:14:48.172Z,9.10
2019-03-22T08:17:32.909Z,9.20
2019-03-22T08:20:17.488Z,9.40
2019-03-22T08:23:02.485Z,9.60
2019-03-22T08:25:47.526Z,9.80
2019-03-22T08:28:31.910Z,10.00
2019-03-22T08:31:16.752Z,10.10
2019-03-22T08:34:02.020Z,10.20
2019-03-22T08:36:47.403Z,10.30
2019-03-22T08:39:40.753Z,10.50
2019-03-22T08:42:25.866Z,10.70
2019-03-22T08:45:11.477Z,10.80
2019-03-22T08:47:55.849Z,10.80
2019-03-22T08:50:49.420Z,10.90
2019-03-22T08:53:34.113Z,11.00
2019-03-22T08:56:18.567Z,11.20
2019-03-22T08:59:03.459Z,11.40
2019-03-22T09:01:48.612Z,11.50
2019-03-22T09:04:33.586Z,11.70
2019-03-22T09:07:18.426Z,11.90
2019-03-22T09:10:03.352Z,12.10
2019-03-22T09:12:57.019Z,12.20
2019-03-22T09:15:42.162Z,12.40
2019-03-22T09:18:36.468Z,12.70
2019-03-22T09:21:30.498Z,12.90
2019-03-22T09:24:15.581Z,13.20
2019-03-22T09:27:09.306Z,13.50
2019-03-22T09:29:53.895Z,13.80
2019-03-22T09:32:38.636Z,14.20
2019-03-22T09:35:24.163Z,14.30
2019-03-22T09:38:18.340Z,14.50
2019-03-22T09:41:12.322Z,14.60
2019-03-22T09:44:06.376Z,14.80
2019-03-22T09:47:00.583Z,15.00
2019-03-22T09:49:54.689Z,15.20
2019-03-22T09:52:49.304Z,15.40
2019-03-22T09:55:43.419Z,15.60
2019-03-22T09:58:37.028Z,15.70
2019-03-22T10:01:24.053Z,15.80
2019-03-22T10:04:08.531Z,16.10
2019-03-22T10:07:02.756Z,16.40
2019-03-22T10:09:58.385Z,16.60
2019-03-22T10:12:52.105Z,16.80
2019-03-22T10:15:37.322Z,17.00
2019-03-22T10:18:30.797Z,17.10
2019-03-22T10:21:22.429Z,17.20
2019-03-22T10:24:02.429Z,17.40
2019-03-22T10:26:46.788Z,17.60
2019-03-22T10:29:31.679Z,17.90
2019-03-22T10:32:16.471Z,18.00
2019-03-22T10:35:11.176Z,18.30
2019-03-22T10:38:15.964Z,18.60
2019-03-22T10:40:54.856Z,18.90
2019-03-22T10:43:49.127Z,19.10
2019-03-22T10:46:43.117Z,19.30
2019-03-22T10:49:36.904Z,19.60
2019-03-22T10:52:21.560Z,19.90
2019-03-22T10:55:23.414Z,20.20
2019-03-22T10:58:02.318Z,20.30
2019-03-22T11:00:46.845Z,20.60
2019-03-22T11:03:31.949Z,21.00
2019-03-22T11:06:26.725Z,21.20
2019-03-22T11:09:11.680Z,21.40
2019-03-22T11:11:56.682Z,21.70
2019-03-22T11:14:41.649Z,21.90
2019-03-22T11:17:26.893Z,21.90
2019-03-22T11:20:21.142Z,22.00
2019-03-22T11:23:15.308Z,22.10
2019-03-22T11:26:08.928Z,22.40
2019-03-22T11:28:53.680Z,22.70
2019-03-22T11:31:40.185Z,23.00
2019-03-22T11:34:25.196Z,23.30
2019-03-22T11:37:09.765Z,23.60
2019-03-22T11:39:54.320Z,23.50
2019-03-22T11:42:39.274Z,23.80
2019-03-22T11:45:24.693Z,24.20
2019-03-22T11:48:18.920Z,24.40
2019-03-22T11:51:13.016Z,24.60
2019-03-22T11:54:07.320Z,24.80
2019-03-22T11:57:01.229Z,25.00
2019-03-22T11:59:55.356Z,25.30
2019-03-22T12:02:49.520Z,25.60
2019-03-22T12:05:43.124Z,26.00
2019-03-22T12:08:28.189Z,25.90
2019-03-22T12:11:13.137Z,26.10
2019-03-22T12:13:57.976Z,26.20
2019-03-22T12:16:43.125Z,26.10
2019-03-22T12:19:29.365Z,26.10
2019-03-22T12:22:22.843Z,25.70
2019-03-22T12:25:07.826Z,25.50
2019-03-22T12:27:52.548Z,25.20
2019-03-22T12:30:37.601Z,24.80
2019-03-22T12:33:22.837Z,24.50
2019-03-22T12:36:16.656Z,24.80
2019-03-22T12:39:01.025Z,25.10
2019-03-22T12:41:46.678Z,25.50
2019-03-22T12:44:40.289Z,25.60
2019-03-22T12:47:24.595Z,25.40
2019-03-22T12:50:09.203Z,25.20
2019-03-22T12:52:54.000Z,25.10
2019-03-22T12:55:38.696Z,25.30
2019-03-22T12:58:23.799Z,25.50
2019-03-22T13:01:10.231Z,25.60
2019-03-22T13:03:54.845Z,25.70
2019-03-22T13:06:39.497Z,25.90
2019-03-22T13:09:24.376Z,26.20
2019-03-22T13:12:09.748Z,26.20
2019-03-22T13:14:56.628Z,26.20
2019-03-22T13:17:41.461Z,26.20
2019-03-22T13:20:35.482Z,26.50
2019-03-22T13:23:29.517Z,26.70
2019-03-22T13:26:14.429Z,26.50
2019-03-22T13:29:08.341Z,26.20
2019-03-22T13:31:53.693Z,26.70
2019-03-22T13:34:47.105Z,27.10
2019-03-22T13:37:31.368Z,26.90
2019-03-22T13:40:16.473Z,27.40
2019-03-22T13:43:01.653Z,27.40
2019-03-22T13:45:46.650Z,27.70
2019-03-22T13:48:32.025Z,27.60
2019-03-22T13:51:25.624Z,27.20
2019-03-22T13:54:10.464Z,27.00
2019-03-22T13:57:04.191Z,26.80
2019-03-22T13:59:48.900Z,26.20
2019-03-22T14:02:34.210Z,25.80
2019-03-22T14:05:28.377Z,25.70
2019-03-22T14:08:13.130Z,25.80
2019-03-22T14:10:58.484Z,26.50
2019-03-22T14:13:52.145Z,26.50
2019-03-22T14:16:36.666Z,26.10
2019-03-22T14:19:22.296Z,26.00
2019-03-22T14:22:07.545Z,25.70
2019-03-22T14:25:02.108Z,25.60
2019-03-22T14:27:47.797Z,25.80
2019-03-22T14:30:32.648Z,25.60
2019-03-22T14:33:17.389Z,25.90
2019-03-22T14:36:02.396Z,25.60
2019-03-22T14:38:47.265Z,25.20
2019-03-22T14:41:32.763Z,25.60
2019-03-22T14:44:28.218Z,26.00
2019-03-22T14:47:13.329Z,26.40
2019-03-22T14:50:07.141Z,26.50
2019-03-22T14:52:53.445Z,26.60
2019-03-22T14:55:38.725Z,26.50
2019-03-22T14:58:33.885Z,26.10
2019-03-22T15:01:18.598Z,25.60
2019-03-22T15:04:03.434Z,24.90
2019-03-22T15:06:48.086Z,24.70
2019-03-22T15:09:32.672Z,24.80
2019-03-22T15:12:17.819Z,24.80
2019-03-22T15:15:21.758Z,25.00
2019-03-22T15:18:25.654Z,24.90
2019-03-22T15:21:49.419Z,24.30
2019-03-22T15:25:34.622Z,24.00
2019-03-22T15:28:54.948Z,23.70
2019-03-22T15:31:58.677Z,23.40
2019-03-22T15:35:02.136Z,23.10
2019-03-22T15:38:09.225Z,22.80
2019-03-22T15:41:11.316Z,22.50
2019-03-22T15:43:56.282Z,22.20
2019-03-22T15:46:40.904Z,22.00
2019-03-22T15:49:25.909Z,21.80
2019-03-22T15:52:11.112Z,21.80
2019-03-22T15:54:56.041Z,21.70
2019-03-22T15:57:40.958Z,21.50
2019-03-22T16:00:26.168Z,21.40
2019-03-22T16:03:19.962Z,21.30
2019-03-22T16:06:05.762Z,21.00
2019-03-22T16:08:50.584Z,20.80
2019-03-22T16:11:34.913Z,20.80
2019-03-22T16:14:28.691Z,20.70
2019-03-22T16:17:22.814Z,20.50
2019-03-22T16:20:07.964Z,20.40
2019-03-22T16:23:01.894Z,20.30
2019-03-22T16:25:55.544Z,20.20
2019-03-22T16:28:40.409Z,20.00
2019-03-22T16:31:25.384Z,19.80
2019-03-22T16:34:10.694Z,19.70
2019-03-22T16:37:04.670Z,19.60
2019-03-22T16:39:50.813Z,19.50
2019-03-22T16:42:35.993Z,19.40
2019-03-22T16:45:29.632Z,19.30
2019-03-22T16:48:14.389Z,19.30
2019-03-22T16:50:59.652Z,19.20
2019-03-22T16:53:54.184Z,19.10
2019-03-22T16:56:47.624Z,19.00
2019-03-22T16:59:32.313Z,18.90
2019-03-22T17:02:17.034Z,18.80
2019-03-22T17:05:01.806Z,18.70
2019-03-22T17:07:46.792Z,18.60
2019-03-22T17:10:32.557Z,18.50
2019-03-22T17:13:17.156Z,18.40
2019-03-22T17:16:11.308Z,18.20
2019-03-22T17:19:05.235Z,18.10
2019-03-22T17:21:58.782Z,18.10
2019-03-22T17:24:43.992Z,17.90
2019-03-22T17:27:38.364Z,17.90
2019-03-22T17:30:31.912Z,17.70
2019-03-22T17:33:16.997Z,17.60
2019-03-22T17:36:01.581Z,17.60
2019-03-22T17:38:46.632Z,17.50
2019-03-22T17:41:45.250Z,17.40
2019-03-22T17:44:29.949Z,17.30
2019-03-22T17:47:14.582Z,17.20
2019-03-22T17:49:59.402Z,17.00
2019-03-22T17:52:44.468Z,16.80
2019-03-22T17:55:29.605Z,16.70
2019-03-22T17:58:23.419Z,16.60
2019-03-22T18:01:08.526Z,16.40
2019-03-22T18:04:02.960Z,16.30
2019-03-22T18:06:56.680Z,16.20
2019-03-22T18:09:51.297Z,16.10
2019-03-22T18:12:45.269Z,16.00
2019-03-22T18:15:39.596Z,15.80
2019-03-22T18:18:33.264Z,15.80
2019-03-22T18:21:17.634Z,15.50
2019-03-22T18:24:02.128Z,15.30
2019-03-22T18:26:46.914Z,15.10
2019-03-22T18:29:31.500Z,14.90
2019-03-22T18:32:16.933Z,14.70
2019-03-22T18:35:01.978Z,14.50
2019-03-22T18:37:46.584Z,14.40
2019-03-22T18:40:31.280Z,14.30
2019-03-22T18:43:16.223Z,14.20
2019-03-22T18:46:00.904Z,14.20
2019-03-22T18:48:46.396Z,14.00
2019-03-22T18:51:40.431Z,13.80
2019-03-22T18:54:25.177Z,13.80
2019-03-22T18:57:10.581Z,13.90
2019-03-22T18:59:56.412Z,13.80
2019-03-22T19:02:41.082Z,13.60
2019-03-22T19:05:26.421Z,13.40
2019-03-22T19:08:20.236Z,13.20
2019-03-22T19:11:14.421Z,13.00
2019-03-22T19:14:00.813Z,12.70
2019-03-22T19:16:54.935Z,12.60
2019-03-22T19:19:49.173Z,12.40
2019-03-22T19:22:43.806Z,12.10
2019-03-22T19:25:28.072Z,11.80
2019-03-22T19:28:13.189Z,11.70
2019-03-22T19:30:58.129Z,11.70
2019-03-22T19:33:43.081Z,11.80
2019-03-22T19:36:28.476Z,12.10
2019-03-22T19:39:22.120Z,12.40
2019-03-22T19:42:16.352Z,12.50
2019-03-22T19:45:10.916Z,12.40
2019-03-22T19:47:57.337Z,12.20
2019-03-22T19:50:50.657Z,11.80
2019-03-22T19:53:35.077Z,11.70
2019-03-22T19:56:19.889Z,11.50
2019-03-22T19:59:04.788Z,11.40
2019-03-22T20:01:49.753Z,11.30
2019-03-22T20:04:34.955Z,11.20
2019-03-22T20:07:29.100Z,11.30
2019-03-22T20:10:13.761Z,11.60
2019-03-22T20:12:58.730Z,11.80
2019-03-22T20:15:43.377Z,11.90
2019-03-22T20:18:28.042Z,12.00
2019-03-22T20:21:13.204Z,11.80
2019-03-22T20:24:07.417Z,11.40
2019-03-22T20:27:01.260Z,11.10
2019-03-22T20:29:46.503Z,11.00
2019-03-22T20:32:40.461Z,11.10
2019-03-22T20:35:34.221Z,11.10
2019-03-22T20:38:19.638Z,11.10
2019-03-22T20:41:13.355Z,10.90
2019-03-22T20:43:58.369Z,10.80
2019-03-22T20:46:52.276Z,10.60
2019-03-22T20:49:37.309Z,10.40
2019-03-22T20:52:31.089Z,10.50
2019-03-22T20:55:16.097Z,10.60
2019-03-22T20:58:10.615Z,10.40
2019-03-22T21:01:04.156Z,10.30
2019-03-22T21:03:49.225Z,10.10
2019-03-22T21:06:43.382Z,10.10
2019-03-22T21:09:37.419Z,10.00
2019-03-22T21:12:22.447Z,10.00
2019-03-22T21:15:24.397Z,10.00
2019-03-22T21:18:11.528Z,10.00
2019-03-22T21:20:56.128Z,9.90
2019-03-22T21:23:41.257Z,9.70
2019-03-22T21:26:26.262Z,9.90
2019-03-22T21:29:11.174Z,9.90
2019-03-22T21:31:56.337Z,9.80
2019-03-22T21:34:50.134Z,9.70
2019-03-22T21:37:35.224Z,9.80
2019-03-22T21:40:28.965Z,9.90
2019-03-22T21:43:13.884Z,9.80
2019-03-22T21:45:59.136Z,9.70
2019-03-22T21:48:53.622Z,9.50
2019-03-22T21:51:38.865Z,9.50
2019-03-22T21:54:23.560Z,9.50
2019-03-22T21:57:08.187Z,9.40
2019-03-22T21:59:53.539Z,9.30
2019-03-22T22:02:38.561Z,9.20
2019-03-22T22:05:23.047Z,9.10
2019-03-22T22:08:08.415Z,9.00
2019-03-22T22:11:01.993Z,8.90
2019-03-22T22:13:48.101Z,8.70
2019-03-22T22:16:33.161Z,8.70
2019-03-22T22:19:18.052Z,8.60
2019-03-22T22:22:02.171Z,8.40
2019-03-22T22:28:22.845Z,8.40
2019-03-22T22:31:16.397Z,8.30
2019-03-22T22:34:01.416Z,8.40
2019-03-22T22:36:55.131Z,8.70
2019-03-22T22:39:39.573Z,8.50
2019-03-22T22:42:24.412Z,8.30
2019-03-22T22:45:08.808Z,8.20
2019-03-22T22:47:53.941Z,8.20
2019-03-22T22:50:39.152Z,8.30
2019-03-22T22:53:23.452Z,8.60
2019-03-22T22:56:08.019Z,8.80
2019-03-22T22:58:52.620Z,8.60
2019-03-22T23:01:46.582Z,8.50
2019-03-22T23:04:40.763Z,8.40
2019-03-22T23:07:34.902Z,8.20
2019-03-22T23:10:28.576Z,8.20
2019-03-22T23:13:13.327Z,8.10
2019-03-22T23:15:58.265Z,8.00
2019-03-22T23:18:43.709Z,8.10
2019-03-22T23:21:37.524Z,8.30
2019-03-22T23:24:31.060Z,8.20
2019-03-22T23:27:15.387Z,8.10
2019-03-22T23:30:00.881Z,8.00
2019-03-22T23:32:46.797Z,7.90
2019-03-22T23:35:31.605Z,8.10
2019-03-22T23:38:16.244Z,8.30
2019-03-22T23:41:00.877Z,8.30
2019-03-22T23:43:45.659Z,8.10
2019-03-22T23:46:39.664Z,7.90
2019-03-22T23:49:33.637Z,7.80
2019-03-22T23:52:27.907Z,7.80
2019-03-22T23:55:22.144Z,7.90
2019-03-22T23:58:15.762Z,7.90
